createdAt,value
2023-02-07T00:06:36.730Z,79.89
2023-02-07T00:16:41.870Z,79.17
2023-02-07T00:26:47.384Z,78.63
2023-02-07T00:36:51.930Z,78.53
2023-02-07T00:46:55.076Z,78.34
2023-02-07T00:56:59.530Z,77.44
2023-02-07T01:07:02.644Z,76.64
2023-02-07T01:17:07.177Z,78.01
2023-02-07T01:27:11.214Z,77.98
2023-02-07T01:37:15.837Z,78.35
2023-02-07T01:47:21.817Z,77.72
2023-02-07T01:57:27.211Z,77.75
2023-02-07T02:07:33.019Z,77.21
2023-02-07T02:17:48.818Z,79.67
2023-02-07T02:28:15.189Z,77.74
2023-02-07T02:38:28.215Z,78.40
2023-02-07T02:48:32.294Z,80.27
2023-02-07T02:58:50.148Z,78.96
2023-02-07T03:09:00.014Z,78.42
2023-02-07T03:19:10.288Z,78.71
2023-02-07T03:29:17.101Z,77.76
2023-02-07T03:39:22.561Z,78.71
2023-02-07T03:49:25.860Z,78.34
2023-02-07T03:59:31.524Z,79.50
2023-02-07T04:09:34.534Z,78.67
2023-02-07T04:19:39.178Z,78.26
2023-02-07T04:29:42.612Z,78.88
2023-02-07T04:39:47.190Z,79.59
2023-02-07T04:49:50.362Z,78.79
2023-02-07T04:59:54.752Z,79.62
2023-02-07T05:09:57.924Z,80.14
2023-02-07T05:20:02.717Z,80.20
2023-02-07T05:30:07.612Z,80.49
2023-02-07T05:40:13.230Z,80.05
2023-02-07T05:50:16.853Z,78.42
2023-02-07T06:00:21.615Z,79.24
2023-02-07T06:10:24.662Z,79.55
2023-02-07T06:20:29.963Z,78.23
2023-02-07T06:30:33.128Z,77.83
2023-02-07T06:40:37.625Z,77.22
2023-02-07T06:50:41.241Z,78.54
2023-02-07T07:00:46.029Z,79.31
2023-02-07T07:21:17.084Z,78.02
2023-02-07T07:31:20.083Z,79.45
2023-02-07T07:41:24.738Z,79.21
2023-02-07T07:51:28.209Z,79.41
2023-02-07T08:01:32.581Z,79.74
2023-02-07T08:11:35.942Z,81.15
2023-02-07T08:21:43.900Z,80.77
2023-02-07T08:31:49.078Z,78.51
2023-02-07T08:41:53.764Z,78.89
2023-02-07T08:51:59.244Z,78.60
2023-02-07T09:02:04.812Z,76.25
2023-02-07T09:12:08.619Z,75.94
2023-02-07T09:22:13.201Z,75.26
2023-02-07T09:32:16.783Z,73.54
2023-02-07T09:42:30.798Z,74.33
2023-02-07T09:52:38.795Z,72.00
2023-02-07T10:02:49.539Z,68.84
2023-02-07T10:13:08.590Z,68.16
2023-02-07T10:23:25.075Z,65.07
2023-02-07T10:33:34.052Z,64.68
2023-02-07T10:43:39.928Z,61.61
2023-02-07T10:53:54.258Z,59.04
2023-02-07T11:04:00.800Z,55.16
2023-02-07T11:14:07.936Z,54.84
2023-02-07T11:24:16.346Z,51.93
2023-02-07T11:34:31.235Z,51.95
2023-02-07T11:44:43.836Z,50.19
2023-02-07T11:54:52.726Z,47.50
2023-02-07T12:05:13.780Z,46.88
2023-02-07T12:15:22.779Z,48.44
2023-02-07T12:25:31.122Z,47.70
2023-02-07T12:35:51.946Z,50.14
2023-02-07T12:46:18.370Z,48.91
2023-02-07T12:56:36.961Z,49.72
2023-02-07T13:06:49.315Z,50.32
2023-02-07T13:17:05.813Z,49.08
2023-02-07T13:27:18.041Z,47.91
2023-02-07T13:37:29.814Z,45.31
2023-02-07T13:47:59.203Z,45.41
2023-02-07T13:58:20.034Z,45.40
2023-02-07T14:08:25.947Z,46.06
2023-02-07T14:18:42.849Z,43.78
2023-02-07T14:28:47.171Z,44.07
2023-02-07T14:39:24.138Z,47.10
2023-02-07T14:49:33.051Z,46.41
2023-02-07T14:59:41.306Z,45.42
2023-02-07T15:09:46.205Z,45.75
2023-02-07T15:19:53.087Z,45.58
2023-02-07T15:30:00.384Z,46.52
2023-02-07T15:40:03.806Z,45.03
2023-02-07T15:50:23.185Z,46.45
2023-02-07T16:00:29.634Z,44.93
2023-02-07T16:10:38.270Z,44.84
2023-02-07T16:20:43.231Z,43.72
2023-02-07T16:30:49.833Z,43.61
2023-02-07T16:40:53.246Z,45.30
2023-02-07T16:50:58.230Z,56.52
2023-02-07T17:01:03.075Z,47.82
2023-02-07T17:11:08.697Z,49.60
2023-02-07T17:21:13.925Z,49.54
2023-02-07T17:31:18.803Z,50.80
2023-02-07T17:41:22.286Z,51.84
2023-02-07T17:51:28.600Z,52.30
2023-02-07T18:01:32.709Z,53.66
2023-02-07T18:11:36.856Z,54.91
2023-02-07T18:21:40.300Z,56.17
2023-02-07T18:31:44.938Z,58.19
2023-02-07T18:41:48.186Z,58.85
2023-02-07T18:51:52.386Z,59.91
2023-02-07T19:01:55.424Z,59.65
2023-02-07T19:11:59.773Z,60.28
2023-02-07T19:22:02.736Z,60.19
2023-02-07T19:32:09.677Z,63.49
2023-02-07T19:42:13.557Z,62.47
2023-02-07T19:52:18.901Z,60.75
2023-02-07T20:02:21.750Z,61.65
2023-02-07T20:12:26.179Z,61.70
2023-02-07T20:22:30.628Z,61.55
2023-02-07T20:32:34.869Z,62.26
2023-02-07T20:42:37.969Z,63.22
2023-02-07T20:52:42.666Z,65.00
2023-02-07T21:02:45.814Z,65.15
2023-02-07T21:12:50.477Z,66.23
2023-02-07T21:22:53.755Z,66.38
2023-02-07T21:32:58.608Z,66.42
2023-02-07T21:43:01.580Z,65.95
2023-02-07T21:53:07.488Z,64.29
2023-02-07T22:03:11.875Z,66.21
2023-02-07T22:13:16.959Z,65.99
2023-02-07T22:23:20.208Z,67.40
2023-02-07T22:33:24.498Z,66.80
2023-02-07T22:43:27.644Z,66.88
2023-02-07T22:53:31.876Z,68.15
2023-02-07T23:03:35.474Z,67.00
2023-02-07T23:13:42.221Z,66.56
2023-02-07T23:23:45.816Z,66.44
2023-02-07T23:33:50.627Z,67.57
2023-02-07T23:43:53.479Z,66.66
2023-02-07T23:53:58.026Z,67.09
